createdAt,value
2017-07-27T13:37:43.921Z,216
2017-07-27T13:38:45.485Z,208
2017-07-27T13:39:16.902Z,208
2017-07-27T13:40:18.339Z,208
2017-07-27T13:41:52.795Z,4648
2017-07-27T13:42:54.374Z,5340
2017-07-27T13:43:55.840Z,6448
2017-07-27T13:44:57.288Z,6444
2017-07-27T13:45:59.251Z,5196
2017-07-27T13:47:00.657Z,4456
2017-07-27T13:48:02.148Z,4188
2017-07-27T13:49:03.626Z,3724
2017-07-27T13:50:05.148Z,3968
2017-07-27T13:51:06.542Z,4236
2017-07-27T13:52:07.976Z,4416
2017-07-27T13:53:09.496Z,2972
2017-07-27T13:54:13.752Z,4344
2017-07-27T13:55:15.263Z,1792
2017-07-27T13:56:16.657Z,10736
2017-07-27T13:57:18.338Z,11504
2017-07-27T13:58:19.826Z,12452
2017-07-27T13:59:21.328Z,10668
2017-07-27T14:00:22.852Z,9768
2017-07-27T14:01:24.462Z,9900
2017-07-27T14:02:25.879Z,848
2017-07-27T14:03:27.272Z,3080
2017-07-27T14:04:28.683Z,3228
2017-07-27T14:05:30.087Z,3164
2017-07-27T14:06:32.484Z,3072
2017-07-27T14:07:33.891Z,2928
2017-07-27T14:08:35.337Z,2772
2017-07-27T14:09:36.797Z,2588
2017-07-27T14:10:39.045Z,2440
2017-07-27T14:11:41.106Z,2312
2017-07-27T14:13:22.242Z,2216
2017-07-27T14:14:23.736Z,2116
2017-07-27T14:15:25.199Z,1924
2017-07-27T14:16:26.600Z,1728
2017-07-27T14:17:28.070Z,1568
2017-07-27T14:18:29.480Z,1480
2017-07-27T14:19:30.973Z,1620
2017-07-27T14:20:32.449Z,1804
2017-07-27T14:21:33.870Z,1996
2017-07-27T14:22:35.273Z,1940
2017-07-27T14:23:36.693Z,1788
2017-07-27T14:24:38.177Z,1732
2017-07-27T14:25:39.573Z,1796
2017-07-27T14:26:41.008Z,1896
2017-07-27T14:27:42.424Z,2060
2017-07-27T14:28:43.885Z,2056
2017-07-27T14:29:45.299Z,2080
2017-07-27T14:30:46.774Z,2128
2017-07-27T14:31:48.223Z,2220
2017-07-27T14:32:49.662Z,2484
2017-07-27T14:33:51.132Z,3212
2017-07-27T14:34:52.565Z,3848
2017-07-27T14:35:53.966Z,3980
2017-07-27T14:36:55.396Z,3780
2017-07-27T14:37:56.823Z,3468
2017-07-27T14:38:58.246Z,3120
2017-07-27T14:39:59.684Z,2984
2017-07-27T14:41:01.088Z,2936
2017-07-27T14:42:02.502Z,2928
2017-07-27T14:43:03.983Z,3152
2017-07-27T14:44:45.259Z,3688
2017-07-27T14:45:46.670Z,3696
2017-07-27T14:46:48.083Z,3456
2017-07-27T14:47:49.511Z,3420
2017-07-27T14:48:50.914Z,2816
2017-07-27T14:49:52.325Z,2572
2017-07-27T14:50:53.729Z,2344
2017-07-27T14:51:55.180Z,2164
2017-07-27T14:52:56.560Z,1960
2017-07-27T14:53:57.965Z,2020
2017-07-27T14:54:59.362Z,2076
2017-07-27T14:56:00.818Z,2032
2017-07-27T14:57:02.223Z,1956
2017-07-27T14:58:03.680Z,2132
2017-07-27T14:59:05.136Z,2140
2017-07-27T15:00:06.533Z,2192
2017-07-27T15:01:07.966Z,2288
2017-07-27T15:02:09.383Z,2400
2017-07-27T15:03:10.795Z,2472
2017-07-27T15:04:12.219Z,2568
2017-07-27T15:05:13.617Z,2508
2017-07-27T15:06:15.032Z,2364
2017-07-27T15:07:17.373Z,2264
2017-07-27T15:08:19.480Z,2188
2017-07-27T15:09:21.786Z,2088
2017-07-27T15:10:23.193Z,2020
2017-07-27T15:11:24.601Z,1852
2017-07-27T15:12:26.019Z,1588
2017-07-27T15:13:27.435Z,1536
2017-07-27T15:14:30.441Z,1676
2017-07-27T15:16:11.639Z,2640
2017-07-27T15:17:13.102Z,2780
2017-07-27T15:18:14.536Z,2580
2017-07-27T15:19:15.947Z,2092
2017-07-27T15:20:17.355Z,1844
2017-07-27T15:21:18.829Z,1596
2017-07-27T15:22:20.247Z,1480
2017-07-27T15:23:21.698Z,1480
2017-07-27T15:24:23.088Z,1572
2017-07-27T15:25:24.487Z,1532
2017-07-27T15:26:25.911Z,1320
2017-07-27T15:27:27.299Z,1304
2017-07-27T15:28:28.724Z,1428
2017-07-27T15:29:30.157Z,1392
2017-07-27T15:30:31.588Z,1396
2017-07-27T15:31:33.042Z,1532
2017-07-27T15:32:34.486Z,1652
2017-07-27T15:33:35.889Z,1660
2017-07-27T15:34:37.283Z,1652
2017-07-27T15:35:38.689Z,1652
2017-07-27T15:36:40.798Z,1676
2017-07-27T15:37:42.251Z,1720
2017-07-27T15:38:43.653Z,1772
2017-07-27T15:39:45.072Z,1868
2017-07-27T15:40:46.525Z,1940
2017-07-27T15:41:47.956Z,2024
2017-07-27T15:42:49.372Z,2112
2017-07-27T15:43:50.849Z,2180
2017-07-27T15:44:52.352Z,2264
2017-07-27T15:45:53.797Z,2388
2017-07-27T15:47:35.005Z,2772
2017-07-27T15:48:36.462Z,3124
2017-07-27T15:49:37.891Z,3916
2017-07-27T15:50:39.300Z,4572
2017-07-27T15:51:40.708Z,5388
2017-07-27T15:52:42.107Z,5280
2017-07-27T15:53:43.571Z,5620
2017-07-27T15:54:44.992Z,4588
2017-07-27T15:55:46.394Z,5008
2017-07-27T15:56:47.803Z,4836
2017-07-27T15:57:49.208Z,5416
2017-07-27T15:58:50.621Z,4228
2017-07-27T15:59:52.239Z,4376
2017-07-27T16:00:53.688Z,3796
2017-07-27T16:01:55.101Z,3872
2017-07-27T16:02:56.509Z,3976
2017-07-27T16:03:57.942Z,3580
2017-07-27T16:04:59.457Z,3404
2017-07-27T16:06:00.881Z,3292
2017-07-27T16:07:02.480Z,3284
2017-07-27T16:08:03.902Z,3300
2017-07-27T16:09:05.321Z,3336
2017-07-27T16:10:06.732Z,3376
2017-07-27T16:11:08.128Z,3628
2017-07-27T16:12:09.528Z,4112
2017-07-27T16:13:10.955Z,4500
2017-07-27T16:14:12.352Z,4364
2017-07-27T16:15:13.780Z,4124
2017-07-27T16:16:15.201Z,4156
2017-07-27T16:17:16.603Z,4028
2017-07-27T16:18:57.804Z,4068
2017-07-27T16:19:59.266Z,4052
2017-07-27T16:21:00.691Z,3932
2017-07-27T16:22:02.215Z,3848
2017-07-27T16:23:03.689Z,3788
2017-07-27T16:24:05.162Z,3660
2017-07-27T16:25:06.579Z,3880
2017-07-27T16:26:07.990Z,6196
2017-07-27T16:27:09.389Z,6020
2017-07-27T16:28:10.819Z,4268
2017-07-27T16:29:12.243Z,5300
2017-07-27T16:30:13.662Z,4976
2017-07-27T16:31:15.079Z,4856
2017-07-27T16:32:20.360Z,5824
2017-07-27T16:33:21.844Z,3988
2017-07-27T16:34:23.334Z,3620
2017-07-27T16:35:24.742Z,5128
2017-07-27T16:36:26.147Z,5236
2017-07-27T16:37:27.558Z,3884
2017-07-27T16:38:28.986Z,2584
2017-07-27T16:39:30.475Z,2360
2017-07-27T16:40:31.923Z,2236
2017-07-27T16:41:33.431Z,2192
2017-07-27T16:42:34.874Z,2220
2017-07-27T16:43:36.292Z,2220
2017-07-27T16:44:37.708Z,2260
2017-07-27T16:45:39.140Z,2320
2017-07-27T16:46:40.554Z,2336
2017-07-27T16:47:41.996Z,2252
2017-07-27T16:48:43.421Z,2468
2017-07-27T16:50:24.647Z,2712
2017-07-27T16:51:26.127Z,2248
2017-07-27T16:52:27.525Z,1948
2017-07-27T16:53:28.919Z,1848
2017-07-27T16:54:30.351Z,1780
2017-07-27T16:55:31.769Z,1712
2017-07-27T16:56:33.195Z,1740
2017-07-27T16:57:34.612Z,2788
2017-07-27T16:58:36.058Z,2740
2017-07-27T16:59:37.480Z,2400
2017-07-27T17:00:38.880Z,2036
2017-07-27T17:01:40.316Z,1764
2017-07-27T17:02:41.870Z,1608
2017-07-27T17:03:43.214Z,1344
2017-07-27T17:04:44.628Z,1184
2017-07-27T17:05:46.049Z,1116
2017-07-27T17:06:47.447Z,1088
2017-07-27T17:07:48.859Z,1080
2017-07-27T17:08:50.333Z,1032
2017-07-27T17:09:51.743Z,972
2017-07-27T17:10:53.158Z,912
2017-07-27T17:11:54.639Z,888
2017-07-27T17:12:56.103Z,892
2017-07-27T17:13:57.512Z,908
2017-07-27T17:14:58.947Z,924
2017-07-27T17:16:00.356Z,944
2017-07-27T17:17:01.763Z,980
2017-07-27T17:18:03.224Z,1024
2017-07-27T17:19:04.637Z,1028
2017-07-27T17:20:06.085Z,996
2017-07-27T17:21:47.338Z,908
2017-07-27T17:22:48.785Z,848
2017-07-27T17:23:50.215Z,780
2017-07-27T17:24:51.656Z,700
2017-07-27T17:25:53.062Z,656
2017-07-27T17:26:54.554Z,628
2017-07-27T17:27:56.056Z,612
2017-07-27T17:28:57.473Z,624
2017-07-27T17:29:58.872Z,612
2017-07-27T17:31:00.275Z,592
2017-07-27T17:32:01.675Z,548
2017-07-27T17:33:03.145Z,492
2017-07-27T17:34:04.556Z,456
2017-07-27T17:35:05.966Z,436
2017-07-27T17:36:07.465Z,428
2017-07-27T17:37:09.014Z,448
2017-07-27T17:38:10.441Z,452
2017-07-27T17:39:11.877Z,444
2017-07-27T17:40:13.278Z,440
2017-07-27T17:41:14.697Z,408
2017-07-27T17:42:16.136Z,344
2017-07-27T17:43:17.606Z,288
2017-07-27T17:44:19.082Z,236
2017-07-27T17:45:20.478Z,208
2017-07-27T17:46:22.002Z,196
2017-07-27T17:47:23.436Z,192
2017-07-27T17:48:24.873Z,192
2017-07-27T17:49:26.293Z,184
2017-07-27T17:50:27.706Z,168
2017-07-27T17:51:29.144Z,152
2017-07-27T17:53:45.544Z,132
2017-07-27T17:54:47.071Z,132
2017-07-27T17:55:48.520Z,136
2017-07-27T17:56:49.937Z,148
2017-07-27T17:57:51.352Z,160
2017-07-27T17:58:52.787Z,176
2017-07-27T17:59:54.196Z,192
2017-07-27T18:00:55.588Z,200
2017-07-27T18:01:57.055Z,208
2017-07-27T18:02:58.537Z,208
2017-07-27T18:03:59.951Z,204
2017-07-27T18:05:01.471Z,204
2017-07-27T18:06:02.930Z,200
2017-07-27T18:07:04.355Z,192
2017-07-27T18:08:05.797Z,188
2017-07-27T18:09:07.203Z,184
2017-07-27T18:10:08.614Z,184
2017-07-27T18:11:10.083Z,180
2017-07-27T18:12:11.557Z,184
2017-07-27T18:13:13.013Z,184
2017-07-27T18:14:14.441Z,172
2017-07-27T18:15:15.898Z,160
2017-07-27T18:16:17.384Z,144
2017-07-27T18:17:18.802Z,128
2017-07-27T18:18:20.208Z,112
2017-07-27T18:19:21.626Z,104
2017-07-27T18:20:23.049Z,92
2017-07-27T18:21:24.581Z,84
2017-07-27T18:22:25.989Z,84
2017-07-27T18:24:07.261Z,84
2017-07-27T18:25:08.763Z,84
2017-07-27T18:26:10.328Z,84
2017-07-27T18:27:11.821Z,84
2017-07-27T18:28:13.351Z,84
2017-07-27T18:29:14.852Z,80
2017-07-27T18:30:16.243Z,76
2017-07-27T18:31:17.659Z,68
2017-07-27T18:32:19.058Z,64
2017-07-27T18:33:20.478Z,60
2017-07-27T18:34:21.882Z,56
2017-07-27T18:35:23.273Z,52
2017-07-27T18:36:24.727Z,52
2017-07-27T18:37:26.274Z,48
2017-07-27T18:38:27.724Z,48
2017-07-27T18:39:29.149Z,44
2017-07-27T18:40:30.628Z,40
2017-07-27T18:42:11.838Z,36
2017-07-27T18:43:13.235Z,36
2017-07-27T18:44:14.724Z,36
2017-07-27T18:45:16.166Z,36
2017-07-27T18:46:17.656Z,32
2017-07-27T18:47:19.125Z,32
2017-07-27T18:48:20.557Z,28
2017-07-27T18:49:21.974Z,28
2017-07-27T18:50:23.377Z,24
2017-07-27T18:51:24.807Z,24
2017-07-27T18:52:26.263Z,24
2017-07-27T18:53:27.697Z,20
2017-07-27T18:54:29.188Z,16
2017-07-27T18:55:30.604Z,16
2017-07-27T18:56:32.114Z,12
2017-07-27T18:57:33.636Z,16
2017-07-27T18:58:35.152Z,12
2017-07-27T18:59:36.562Z,12
2017-07-27T19:00:37.972Z,12
2017-07-27T19:01:39.398Z,12
2017-07-27T19:02:40.812Z,8
2017-07-27T19:03:42.250Z,8
2017-07-27T19:04:43.691Z,12
2017-07-27T19:05:45.137Z,8
2017-07-27T19:06:46.691Z,8
2017-07-27T19:07:48.108Z,4
2017-07-27T19:08:49.506Z,8
2017-07-27T19:09:50.908Z,8
2017-07-27T19:10:52.363Z,4
2017-07-27T19:11:53.848Z,4
2017-07-27T19:13:36.215Z,4
2017-07-27T19:14:37.688Z,4
2017-07-27T19:16:18.614Z,4
2017-07-27T19:17:20.065Z,4
2017-07-27T19:18:21.527Z,0
2017-07-27T19:19:22.977Z,0
2017-07-27T19:20:24.461Z,0
2017-07-27T19:21:25.864Z,0
2017-07-27T19:22:27.345Z,4
2017-07-27T19:23:28.798Z,4
2017-07-27T19:24:30.268Z,4
2017-07-27T19:25:31.742Z,4
2017-07-27T19:26:33.195Z,4
2017-07-27T19:27:34.635Z,4
2017-07-27T19:28:36.139Z,4
2017-07-27T19:29:37.615Z,4
2017-07-27T19:30:39.023Z,4
2017-07-27T19:31:40.500Z,4
2017-07-27T19:32:41.914Z,4
2017-07-27T19:33:43.350Z,4
2017-07-27T19:34:44.742Z,4
2017-07-27T19:35:46.147Z,4
2017-07-27T19:36:47.573Z,4
2017-07-27T19:37:49.010Z,0
2017-07-27T19:38:50.411Z,4
2017-07-27T19:39:51.844Z,0
2017-07-27T19:40:53.321Z,4
2017-07-27T19:41:54.799Z,0
2017-07-27T19:42:56.243Z,4
2017-07-27T19:43:57.652Z,0
2017-07-27T19:44:59.100Z,0
2017-07-27T19:46:00.548Z,4
2017-07-27T19:47:41.801Z,4
2017-07-27T19:48:43.288Z,0
2017-07-27T19:49:44.760Z,0
2017-07-27T19:50:46.210Z,0
2017-07-27T19:51:47.614Z,0
2017-07-27T19:52:49.026Z,0
2017-07-27T19:53:50.449Z,4
2017-07-27T19:54:51.862Z,0
2017-07-27T19:55:53.269Z,4
2017-07-27T19:56:54.677Z,4
2017-07-27T19:57:56.096Z,0
2017-07-27T19:58:57.517Z,4
2017-07-27T19:59:59.017Z,0
2017-07-27T20:01:00.439Z,0
2017-07-27T20:02:01.888Z,0
2017-07-27T20:03:03.356Z,0
2017-07-27T20:04:04.816Z,0
2017-07-27T20:05:06.288Z,4
2017-07-27T20:06:07.726Z,4
2017-07-27T20:07:09.253Z,0
2017-07-27T20:08:10.680Z,4
2017-07-27T20:09:12.087Z,0
2017-07-27T20:10:13.505Z,4
2017-07-27T20:11:14.950Z,0
2017-07-27T20:12:16.354Z,4
2017-07-27T20:13:17.755Z,0
2017-07-27T20:14:19.210Z,4
2017-07-27T20:15:20.706Z,4
2017-07-27T20:16:22.122Z,0
2017-07-27T20:17:23.556Z,0
2017-07-27T20:19:04.788Z,0
2017-07-27T20:20:06.193Z,0
2017-07-27T20:21:07.608Z,0
2017-07-27T20:22:09.028Z,0
2017-07-27T20:23:10.450Z,0
2017-07-27T20:24:11.966Z,0
2017-07-27T20:25:53.189Z,4
2017-07-27T20:26:54.726Z,4
2017-07-27T20:27:56.172Z,0
2017-07-27T20:28:57.599Z,0
2017-07-27T20:29:59.000Z,0
2017-07-27T20:31:00.476Z,0
2017-07-27T20:32:01.935Z,0
2017-07-27T20:33:03.379Z,0
2017-07-27T20:34:04.791Z,0
2017-07-27T20:35:06.182Z,0
2017-07-27T20:36:07.587Z,0
2017-07-27T20:37:08.994Z,0
2017-07-27T20:38:10.392Z,0
2017-07-27T20:39:11.796Z,0
2017-07-27T20:40:13.237Z,0
2017-07-27T20:41:14.677Z,0
2017-07-27T20:42:16.158Z,4
2017-07-27T20:43:17.587Z,0
2017-07-27T20:44:19.011Z,0
2017-07-27T20:45:20.545Z,0
2017-07-27T20:46:21.968Z,0
2017-07-27T20:47:23.458Z,4
2017-07-27T20:48:24.934Z,4
2017-07-27T20:49:26.355Z,4
2017-07-27T20:50:27.764Z,4
2017-07-27T20:51:29.376Z,0
2017-07-27T20:52:30.799Z,4
2017-07-27T20:53:32.213Z,4
2017-07-27T20:54:33.612Z,0
2017-07-27T20:55:35.059Z,0
2017-07-27T20:57:15.972Z,0
2017-07-27T20:58:17.395Z,0
2017-07-27T20:59:18.862Z,0
2017-07-27T21:00:20.361Z,0
2017-07-27T21:01:21.892Z,0
2017-07-27T21:02:23.324Z,0
2017-07-27T21:03:24.772Z,0
2017-07-27T21:04:26.225Z,0
2017-07-27T21:05:27.640Z,0
2017-07-27T21:06:29.057Z,0
2017-07-27T21:07:30.446Z,0
2017-07-27T21:08:31.851Z,0
2017-07-27T21:09:33.251Z,0
2017-07-27T21:10:34.700Z,4
2017-07-27T21:11:36.099Z,4
2017-07-27T21:12:37.518Z,0
2017-07-27T21:13:38.919Z,4
2017-07-27T21:14:40.312Z,4
2017-07-27T21:15:41.721Z,0
2017-07-27T21:16:43.133Z,0
2017-07-27T21:17:44.591Z,0
2017-07-27T21:18:46.005Z,4
2017-07-27T21:19:47.438Z,0
2017-07-27T21:20:48.865Z,0
2017-07-27T21:21:50.388Z,4
2017-07-27T21:22:51.826Z,4
2017-07-27T21:23:53.274Z,4
2017-07-27T21:24:54.669Z,4
2017-07-27T21:25:56.171Z,0
2017-07-27T21:26:57.679Z,0
2017-07-27T21:28:38.836Z,4
2017-07-27T21:29:40.266Z,4
2017-07-27T21:30:41.679Z,0
2017-07-27T21:31:43.219Z,4
2017-07-27T21:32:44.646Z,4
2017-07-27T21:33:46.068Z,4
2017-07-27T21:34:47.478Z,0
2017-07-27T21:35:48.903Z,0
2017-07-27T21:36:50.331Z,0
2017-07-27T21:37:51.757Z,0
2017-07-27T21:38:53.179Z,0
2017-07-27T21:39:54.580Z,4
2017-07-27T21:40:56.017Z,4
2017-07-27T21:41:57.496Z,4
2017-07-27T21:42:58.901Z,4
2017-07-27T21:44:00.315Z,0
2017-07-27T21:45:01.779Z,0
2017-07-27T21:46:03.206Z,0
2017-07-27T21:47:04.612Z,0
2017-07-27T21:48:06.027Z,4
2017-07-27T21:49:07.552Z,0
2017-07-27T21:50:08.968Z,4
2017-07-27T21:51:10.360Z,4
2017-07-27T21:52:11.905Z,0
2017-07-27T21:53:13.305Z,0
2017-07-27T21:54:14.731Z,0
2017-07-27T21:55:16.155Z,0
2017-07-27T21:56:17.569Z,0
2017-07-27T21:57:18.978Z,0
2017-07-27T21:58:20.437Z,0
2017-07-27T22:00:02.159Z,0
2017-07-27T22:01:03.640Z,0
2017-07-27T22:02:05.069Z,0
2017-07-27T22:03:06.463Z,0
2017-07-27T22:04:07.878Z,0
2017-07-27T22:05:09.292Z,0
2017-07-27T22:06:10.704Z,0
2017-07-27T22:07:12.087Z,0
2017-07-27T22:08:13.501Z,4
2017-07-27T22:09:14.915Z,0
2017-07-27T22:10:16.347Z,0
2017-07-27T22:11:17.797Z,0
2017-07-27T22:12:19.194Z,0
2017-07-27T22:13:20.626Z,0
2017-07-27T22:14:22.060Z,4
2017-07-27T22:15:23.487Z,0
2017-07-27T22:16:24.906Z,4
2017-07-27T22:17:26.317Z,4
2017-07-27T22:18:27.724Z,0
2017-07-27T22:19:29.176Z,0
2017-07-27T22:20:30.570Z,4
2017-07-27T22:21:31.959Z,0
2017-07-27T22:22:33.361Z,0
2017-07-27T22:23:34.751Z,0
2017-07-27T22:24:36.205Z,0
2017-07-27T22:25:37.598Z,0
2017-07-27T22:26:39.003Z,0
2017-07-27T22:27:40.461Z,4
2017-07-27T22:28:41.863Z,0
2017-07-27T22:29:43.295Z,0
2017-07-27T22:31:24.958Z,0
2017-07-27T22:32:26.414Z,4
2017-07-27T22:33:27.827Z,4
2017-07-27T22:34:29.291Z,4
2017-07-27T22:35:30.684Z,0
2017-07-27T22:36:32.088Z,0
2017-07-27T22:37:33.489Z,0
2017-07-27T22:38:34.900Z,0
2017-07-27T22:39:36.310Z,0
2017-07-27T22:40:37.784Z,0
2017-07-27T22:41:39.187Z,0
2017-07-27T22:42:40.595Z,4
2017-07-27T22:43:42.084Z,0
2017-07-27T22:44:43.487Z,0
2017-07-27T22:45:44.889Z,4
2017-07-27T22:46:46.313Z,0
2017-07-27T22:47:47.728Z,4
2017-07-27T22:48:49.185Z,0
2017-07-27T22:49:50.621Z,4
2017-07-27T22:50:52.071Z,0
2017-07-27T22:51:53.562Z,0
2017-07-27T22:52:54.981Z,4
2017-07-27T22:53:56.385Z,0
2017-07-27T22:54:57.850Z,4
2017-07-27T22:55:59.243Z,0
2017-07-27T22:57:00.676Z,0
2017-07-27T22:58:02.068Z,0
2017-07-27T22:59:03.493Z,0
2017-07-27T23:00:04.902Z,0
2017-07-27T23:01:06.327Z,0
2017-07-27T23:02:47.514Z,0
2017-07-27T23:03:48.946Z,4
2017-07-27T23:04:50.404Z,0
2017-07-27T23:05:51.814Z,0
2017-07-27T23:06:53.223Z,0
2017-07-27T23:07:54.721Z,0
2017-07-27T23:08:56.185Z,0
2017-07-27T23:09:57.603Z,0
2017-07-27T23:10:59.007Z,4
2017-07-27T23:12:00.435Z,0
2017-07-27T23:13:01.895Z,0
2017-07-27T23:14:03.375Z,0
2017-07-27T23:15:04.789Z,0
2017-07-27T23:16:06.203Z,0
2017-07-27T23:17:07.623Z,0
2017-07-27T23:18:09.726Z,4
2017-07-27T23:19:11.182Z,0
2017-07-27T23:20:12.618Z,0
2017-07-27T23:21:14.077Z,0
2017-07-27T23:22:15.507Z,0
2017-07-27T23:23:16.924Z,0
2017-07-27T23:24:18.321Z,4
2017-07-27T23:25:19.738Z,0
2017-07-27T23:26:21.179Z,0
2017-07-27T23:27:22.715Z,4
2017-07-27T23:28:24.115Z,4
2017-07-27T23:29:25.548Z,0
2017-07-27T23:30:26.967Z,4
2017-07-27T23:31:28.372Z,0
2017-07-27T23:32:29.810Z,0
2017-07-27T23:34:11.011Z,4
2017-07-27T23:35:12.455Z,0
2017-07-27T23:36:13.867Z,0
2017-07-27T23:37:15.293Z,0
2017-07-27T23:38:16.819Z,4
2017-07-27T23:39:18.280Z,0
2017-07-27T23:40:19.764Z,4
2017-07-27T23:41:21.247Z,0
2017-07-27T23:42:22.658Z,4
2017-07-27T23:43:24.108Z,0
2017-07-27T23:44:25.499Z,4
2017-07-27T23:45:26.917Z,4
2017-07-27T23:46:28.312Z,4
2017-07-27T23:47:29.727Z,4
2017-07-27T23:48:31.145Z,0
2017-07-27T23:49:32.614Z,0
2017-07-27T23:50:34.018Z,4
2017-07-27T23:51:35.432Z,4
2017-07-27T23:52:36.873Z,4
2017-07-27T23:53:38.372Z,0
2017-07-27T23:54:39.785Z,4
2017-07-27T23:55:41.213Z,4
2017-07-27T23:56:42.664Z,0
2017-07-27T23:57:44.199Z,0
2017-07-27T23:58:45.618Z,4
2017-07-27T23:59:47.027Z,4
